createdAt,value
2023-05-05T00:00:46.686Z,1063.00
2023-05-05T00:01:46.693Z,1062.00
2023-05-05T00:02:46.725Z,1062.00
2023-05-05T00:03:46.714Z,1058.00
2023-05-05T00:04:46.662Z,1059.00
2023-05-05T00:05:46.708Z,1058.00
2023-05-05T00:06:46.695Z,1058.00
2023-05-05T00:07:47.213Z,1056.00
2023-05-05T00:08:46.729Z,1056.00
2023-05-05T00:09:46.736Z,1055.00
2023-05-05T00:10:46.753Z,1053.00
2023-05-05T00:11:46.754Z,1054.00
2023-05-05T00:12:46.800Z,1056.00
2023-05-05T00:13:46.805Z,1055.00
2023-05-05T00:14:46.817Z,1053.00
2023-05-05T00:15:46.844Z,1053.00
2023-05-05T00:16:46.855Z,1053.00
2023-05-05T00:17:46.824Z,1053.00
2023-05-05T00:18:46.788Z,1056.00
2023-05-05T00:19:46.810Z,1051.00
2023-05-05T00:20:46.851Z,1049.00
2023-05-05T00:21:46.778Z,1048.00
2023-05-05T00:22:47.174Z,1047.00
2023-05-05T00:23:46.791Z,1046.00
2023-05-05T00:24:46.812Z,1045.00
2023-05-05T00:25:46.833Z,1046.00
2023-05-05T00:26:46.808Z,1046.00
2023-05-05T00:27:46.821Z,1047.00
2023-05-05T00:28:46.823Z,1048.00
2023-05-05T00:29:46.790Z,1046.00
2023-05-05T00:30:46.817Z,1043.00
2023-05-05T00:31:46.802Z,1042.00
2023-05-05T00:32:46.853Z,1039.00
2023-05-05T00:33:46.761Z,1037.00
2023-05-05T00:34:46.756Z,1037.00
2023-05-05T00:35:46.780Z,1038.00
2023-05-05T00:36:46.778Z,1037.00
2023-05-05T00:37:46.805Z,1035.00
2023-05-05T00:38:46.782Z,1035.00
2023-05-05T00:39:46.794Z,1036.00
2023-05-05T00:40:46.817Z,1035.00
2023-05-05T00:41:46.794Z,1031.00
2023-05-05T00:42:47.248Z,1031.00
2023-05-05T00:43:46.792Z,1030.00
2023-05-05T00:44:47.718Z,1027.00
2023-05-05T00:45:46.833Z,1026.00
2023-05-05T00:46:46.888Z,1027.00
2023-05-05T00:47:46.859Z,1026.00
2023-05-05T00:48:46.857Z,1028.00
2023-05-05T00:49:46.886Z,1030.00
2023-05-05T00:50:46.887Z,1031.00
2023-05-05T00:51:46.901Z,1029.00
2023-05-05T00:52:46.911Z,1028.00
2023-05-05T00:53:46.934Z,1027.00
2023-05-05T00:54:46.939Z,1024.00
2023-05-05T00:55:46.951Z,1022.00
2023-05-05T00:56:46.917Z,1023.00
2023-05-05T00:57:46.931Z,1020.00
2023-05-05T00:58:46.920Z,1021.00
2023-05-05T00:59:46.922Z,1022.00
2023-05-05T01:00:46.909Z,1021.00
2023-05-05T01:01:46.927Z,1016.00
2023-05-05T01:02:46.970Z,1011.00
2023-05-05T01:03:47.041Z,1013.00
2023-05-05T01:04:46.902Z,1015.00
2023-05-05T01:05:46.903Z,1013.00
2023-05-05T01:06:46.907Z,1013.00
2023-05-05T01:07:46.915Z,1015.00
2023-05-05T01:08:46.904Z,1015.00
2023-05-05T01:09:46.929Z,1016.00
2023-05-05T01:10:46.967Z,1013.00
2023-05-05T01:11:46.915Z,1013.00
2023-05-05T01:12:46.963Z,1014.00
2023-05-05T01:13:46.933Z,1015.00
2023-05-05T01:14:46.929Z,1013.00
2023-05-05T01:15:46.952Z,1011.00
2023-05-05T01:16:46.938Z,1007.00
2023-05-05T01:17:46.953Z,1004.00
2023-05-05T01:18:46.893Z,1005.00
2023-05-05T01:19:46.904Z,1002.00
2023-05-05T01:20:46.902Z,1003.00
2023-05-05T01:21:46.911Z,1001.00
2023-05-05T01:22:46.885Z,1002.00
2023-05-05T01:23:46.880Z,1002.00
2023-05-05T01:24:46.860Z,1001.00
2023-05-05T01:25:46.877Z,999.00
2023-05-05T01:26:46.842Z,1000.00
2023-05-05T01:27:46.867Z,999.00
2023-05-05T01:28:46.845Z,999.00
2023-05-05T01:29:46.883Z,998.00
2023-05-05T01:30:46.862Z,998.00
2023-05-05T01:31:46.925Z,998.00
2023-05-05T01:32:46.861Z,998.00
2023-05-05T01:33:46.859Z,997.00
2023-05-05T01:34:46.837Z,996.00
2023-05-05T01:35:46.851Z,996.00
2023-05-05T01:36:46.812Z,992.00
2023-05-05T01:37:46.860Z,989.00
2023-05-05T01:38:46.815Z,985.00
2023-05-05T01:39:46.835Z,985.00
2023-05-05T01:40:46.805Z,986.00
2023-05-05T01:41:46.886Z,986.00
2023-05-05T01:42:46.815Z,987.00
2023-05-05T01:43:46.854Z,984.00
2023-05-05T01:44:46.823Z,983.00
2023-05-05T01:45:46.857Z,984.00
2023-05-05T01:46:46.822Z,988.00
2023-05-05T01:47:46.878Z,987.00
2023-05-05T01:48:46.804Z,987.00
2023-05-05T01:49:46.812Z,987.00
2023-05-05T01:50:46.826Z,988.00
2023-05-05T01:51:46.800Z,986.00
2023-05-05T01:52:46.779Z,986.00
2023-05-05T01:53:46.814Z,986.00
2023-05-05T01:54:46.769Z,984.00
2023-05-05T01:55:46.781Z,985.00
2023-05-05T01:56:46.803Z,985.00
2023-05-05T01:57:46.802Z,983.00
2023-05-05T01:58:46.823Z,982.00
2023-05-05T01:59:46.810Z,983.00
2023-05-05T02:00:46.828Z,987.00
2023-05-05T02:01:46.823Z,988.00
2023-05-05T02:02:46.882Z,987.00
2023-05-05T02:03:46.833Z,984.00
2023-05-05T02:04:46.805Z,981.00
2023-05-05T02:05:46.849Z,976.00
2023-05-05T02:06:46.795Z,973.00
2023-05-05T02:07:46.867Z,973.00
2023-05-05T02:08:46.852Z,974.00
2023-05-05T02:09:46.849Z,977.00
2023-05-05T02:10:46.842Z,977.00
2023-05-05T02:11:46.857Z,978.00
2023-05-05T02:12:46.952Z,977.00
2023-05-05T02:13:46.919Z,980.00
2023-05-05T02:14:46.857Z,980.00
2023-05-05T02:15:46.912Z,980.00
2023-05-05T02:16:46.893Z,978.00
2023-05-05T02:17:46.993Z,978.00
2023-05-05T02:18:46.931Z,974.00
2023-05-05T02:19:46.931Z,974.00
2023-05-05T02:20:46.921Z,976.00
2023-05-05T02:21:46.965Z,975.00
2023-05-05T02:22:46.943Z,975.00
2023-05-05T02:23:46.985Z,973.00
2023-05-05T02:24:46.947Z,969.00
2023-05-05T02:25:46.973Z,970.00
2023-05-05T02:26:46.966Z,971.00
2023-05-05T02:27:47.010Z,976.00
2023-05-05T02:28:47.026Z,974.00
2023-05-05T02:29:47.019Z,974.00
2023-05-05T02:30:46.998Z,975.00
2023-05-05T02:31:47.099Z,975.00
2023-05-05T02:32:47.062Z,973.00
2023-05-05T02:33:47.047Z,974.00
2023-05-05T02:34:47.049Z,972.00
2023-05-05T02:35:47.096Z,971.00
2023-05-05T02:36:47.108Z,970.00
2023-05-05T02:37:47.134Z,969.00
2023-05-05T02:38:47.128Z,968.00
2023-05-05T02:39:47.136Z,968.00
2023-05-05T02:40:47.147Z,968.00
2023-05-05T02:41:47.172Z,969.00
2023-05-05T02:42:47.197Z,968.00
2023-05-05T02:43:47.159Z,969.00
2023-05-05T02:44:47.184Z,968.00
2023-05-05T02:45:47.212Z,966.00
2023-05-05T02:46:47.305Z,965.00
2023-05-05T02:47:47.244Z,967.00
2023-05-05T02:48:47.241Z,965.00
2023-05-05T02:49:47.247Z,960.00
2023-05-05T02:50:47.272Z,956.00
2023-05-05T02:51:47.242Z,955.00
2023-05-05T02:52:47.249Z,951.00
2023-05-05T02:53:47.270Z,950.00
2023-05-05T02:54:47.302Z,951.00
2023-05-05T02:55:47.309Z,948.00
2023-05-05T02:56:47.326Z,948.00
2023-05-05T02:57:47.332Z,946.00
2023-05-05T02:58:47.339Z,948.00
2023-05-05T02:59:47.373Z,946.00
2023-05-05T03:00:47.347Z,946.00
2023-05-05T03:01:47.453Z,948.00
2023-05-05T03:02:47.423Z,948.00
2023-05-05T03:03:47.467Z,945.00
2023-05-05T03:04:47.410Z,947.00
2023-05-05T03:05:47.433Z,947.00
2023-05-05T03:06:47.417Z,948.00
2023-05-05T03:07:47.410Z,946.00
2023-05-05T03:08:47.437Z,946.00
2023-05-05T03:09:47.443Z,946.00
2023-05-05T03:10:47.460Z,943.00
2023-05-05T03:11:47.457Z,943.00
2023-05-05T03:12:47.536Z,943.00
2023-05-05T03:13:47.490Z,939.00
2023-05-05T03:14:47.485Z,937.00
2023-05-05T03:15:47.506Z,935.00
2023-05-05T03:16:47.586Z,937.00
2023-05-05T03:17:47.608Z,937.00
2023-05-05T03:18:47.577Z,936.00
2023-05-05T03:19:47.562Z,935.00
2023-05-05T03:20:47.581Z,936.00
2023-05-05T03:21:47.600Z,937.00
2023-05-05T03:22:47.591Z,935.00
2023-05-05T03:23:47.604Z,936.00
2023-05-05T03:24:47.617Z,936.00
2023-05-05T03:25:47.615Z,935.00
2023-05-05T03:26:47.669Z,932.00
2023-05-05T03:27:47.687Z,935.00
2023-05-05T03:28:47.667Z,936.00
2023-05-05T03:29:47.691Z,937.00
2023-05-05T03:30:47.697Z,937.00
2023-05-05T03:31:47.773Z,936.00
2023-05-05T03:32:47.777Z,935.00
2023-05-05T03:33:47.724Z,936.00
2023-05-05T03:34:47.758Z,934.00
2023-05-05T03:35:48.757Z,933.00
2023-05-05T03:36:47.780Z,930.00
2023-05-05T03:37:47.815Z,929.00
2023-05-05T03:38:47.806Z,929.00
2023-05-05T03:39:47.815Z,928.00
2023-05-05T03:40:47.822Z,928.00
2023-05-05T03:41:47.866Z,926.00
2023-05-05T03:42:48.248Z,925.00
2023-05-05T03:43:47.865Z,927.00
2023-05-05T03:44:47.891Z,925.00
2023-05-05T03:45:47.959Z,925.00
2023-05-05T03:46:47.928Z,923.00
2023-05-05T03:47:48.030Z,923.00
2023-05-05T03:48:47.985Z,925.00
2023-05-05T03:49:47.977Z,925.00
2023-05-05T03:50:47.981Z,925.00
2023-05-05T03:51:48.005Z,924.00
2023-05-05T03:52:48.262Z,925.00
2023-05-05T03:53:48.001Z,924.00
2023-05-05T03:54:48.031Z,922.00
2023-05-05T03:55:48.040Z,920.00
2023-05-05T03:56:48.053Z,918.00
2023-05-05T03:57:48.069Z,918.00
2023-05-05T03:58:48.098Z,919.00
2023-05-05T03:59:48.098Z,917.00
2023-05-05T04:00:48.104Z,914.00
2023-05-05T04:01:48.142Z,917.00
2023-05-05T04:02:48.221Z,915.00
2023-05-05T04:03:48.243Z,913.00
2023-05-05T04:04:48.186Z,913.00
2023-05-05T04:05:48.179Z,908.00
2023-05-05T04:06:48.222Z,907.00
2023-05-05T04:07:48.231Z,907.00
2023-05-05T04:08:48.201Z,906.00
2023-05-05T04:09:48.236Z,910.00
2023-05-05T04:10:48.265Z,913.00
2023-05-05T04:11:48.297Z,914.00
2023-05-05T04:12:48.325Z,915.00
2023-05-05T04:13:48.283Z,914.00
2023-05-05T04:14:48.307Z,912.00
2023-05-05T04:15:48.331Z,914.00
2023-05-05T04:16:48.336Z,910.00
2023-05-05T04:17:48.400Z,909.00
2023-05-05T04:18:48.383Z,909.00
2023-05-05T04:19:48.369Z,909.00
2023-05-05T04:20:48.429Z,909.00
2023-05-05T04:21:48.427Z,908.00
2023-05-05T04:22:49.113Z,905.00
2023-05-05T04:23:48.443Z,906.00
2023-05-05T04:24:48.458Z,908.00
2023-05-05T04:25:48.475Z,908.00
2023-05-05T04:26:48.512Z,905.00
2023-05-05T04:27:48.521Z,904.00
2023-05-05T04:28:48.502Z,901.00
2023-05-05T04:29:48.532Z,902.00
2023-05-05T04:30:48.537Z,899.00
2023-05-05T04:31:48.632Z,900.00
2023-05-05T04:32:48.823Z,898.00
2023-05-05T04:33:48.586Z,900.00
2023-05-05T04:34:48.622Z,900.00
2023-05-05T04:35:48.618Z,902.00
2023-05-05T04:36:48.650Z,902.00
2023-05-05T04:37:48.644Z,902.00
2023-05-05T04:38:48.689Z,902.00
2023-05-05T04:39:48.652Z,903.00
2023-05-05T04:40:48.696Z,904.00
2023-05-05T04:41:48.699Z,902.00
2023-05-05T04:42:48.761Z,904.00
2023-05-05T04:43:48.751Z,906.00
2023-05-05T04:44:48.722Z,908.00
2023-05-05T04:45:48.746Z,908.00
2023-05-05T04:46:48.835Z,909.00
2023-05-05T04:47:49.291Z,911.00
2023-05-05T04:48:48.828Z,907.00
2023-05-05T04:49:48.808Z,905.00
2023-05-05T04:50:48.804Z,905.00
2023-05-05T04:51:48.786Z,903.00
2023-05-05T04:52:49.826Z,900.00
2023-05-05T04:53:48.861Z,896.00
2023-05-05T04:54:48.898Z,896.00
2023-05-05T04:55:48.912Z,896.00
2023-05-05T04:56:48.934Z,895.00
2023-05-05T04:57:48.933Z,895.00
2023-05-05T04:58:48.947Z,893.00
2023-05-05T04:59:48.961Z,892.00
2023-05-05T05:00:48.964Z,893.00
2023-05-05T05:01:48.992Z,892.00
2023-05-05T05:02:49.161Z,891.00
2023-05-05T05:03:49.065Z,893.00
2023-05-05T05:04:48.996Z,893.00
2023-05-05T05:05:49.070Z,894.00
2023-05-05T05:06:49.049Z,893.00
2023-05-05T05:07:49.073Z,891.00
2023-05-05T05:08:49.054Z,889.00
2023-05-05T05:09:49.089Z,888.00
2023-05-05T05:10:49.105Z,887.00
2023-05-05T05:11:49.168Z,887.00
2023-05-05T05:12:49.169Z,887.00
2023-05-05T05:13:49.130Z,887.00
2023-05-05T05:14:49.151Z,887.00
2023-05-05T05:15:49.166Z,885.00
2023-05-05T05:16:49.192Z,883.00
2023-05-05T05:17:49.195Z,884.00
2023-05-05T05:18:49.329Z,884.00
2023-05-05T05:19:49.164Z,886.00
2023-05-05T05:20:49.384Z,887.00
2023-05-05T05:21:49.176Z,886.00
2023-05-05T05:22:49.201Z,884.00
2023-05-05T05:23:49.233Z,885.00
2023-05-05T05:24:49.234Z,885.00
2023-05-05T05:25:49.262Z,888.00
2023-05-05T05:26:49.270Z,886.00
2023-05-05T05:27:55.472Z,882.00
2023-05-05T05:28:50.290Z,881.00
2023-05-05T05:29:49.252Z,879.00
2023-05-05T05:30:49.252Z,876.00
2023-05-05T05:31:49.293Z,876.00
2023-05-05T05:32:49.263Z,878.00
2023-05-05T05:33:49.350Z,877.00
2023-05-05T05:34:49.247Z,873.00
2023-05-05T05:35:49.203Z,872.00
2023-05-05T05:36:49.214Z,874.00
2023-05-05T05:37:49.191Z,871.00
2023-05-05T05:38:49.220Z,870.00
2023-05-05T05:39:49.216Z,868.00
2023-05-05T05:40:49.195Z,868.00
2023-05-05T05:41:49.175Z,869.00
2023-05-05T05:42:49.158Z,870.00
2023-05-05T05:43:49.181Z,869.00
2023-05-05T05:44:49.166Z,870.00
2023-05-05T05:45:49.200Z,871.00
2023-05-05T05:46:49.136Z,870.00
2023-05-05T05:47:49.200Z,873.00
2023-05-05T05:48:49.140Z,873.00
2023-05-05T05:49:49.112Z,870.00
2023-05-05T05:50:49.094Z,870.00
2023-05-05T05:51:49.118Z,868.00
2023-05-05T05:52:49.120Z,868.00
2023-05-05T05:53:49.077Z,869.00
2023-05-05T05:54:49.092Z,867.00
2023-05-05T05:55:49.050Z,868.00
2023-05-05T05:56:49.074Z,868.00
2023-05-05T05:57:49.099Z,869.00
2023-05-05T05:58:49.311Z,867.00
2023-05-05T05:59:49.101Z,866.00
2023-05-05T06:00:49.126Z,864.00
2023-05-05T06:01:49.145Z,865.00
2023-05-05T06:02:49.235Z,869.00
2023-05-05T06:03:49.463Z,939.00
2023-05-05T06:04:49.151Z,981.00
2023-05-05T06:05:49.150Z,1001.00
2023-05-05T06:06:49.210Z,957.00
2023-05-05T06:07:49.177Z,958.00
2023-05-05T06:08:49.300Z,945.00
2023-05-05T06:09:49.225Z,867.00
2023-05-05T06:10:49.259Z,811.00
2023-05-05T06:11:49.283Z,792.00
2023-05-05T06:12:49.336Z,796.00
2023-05-05T06:13:49.826Z,787.00
2023-05-05T06:14:49.443Z,784.00
2023-05-05T06:15:49.512Z,781.00
2023-05-05T06:16:49.538Z,783.00
2023-05-05T06:17:49.622Z,802.00
2023-05-05T06:18:49.657Z,808.00
2023-05-05T06:19:49.712Z,813.00
2023-05-05T06:20:49.762Z,876.00
2023-05-05T06:21:49.820Z,845.00
2023-05-05T06:22:49.862Z,831.00
2023-05-05T06:23:50.346Z,831.00
2023-05-05T06:24:50.009Z,839.00
2023-05-05T06:25:50.050Z,838.00
2023-05-05T06:26:50.087Z,821.00
2023-05-05T06:27:50.173Z,822.00
2023-05-05T06:28:50.319Z,835.00
2023-05-05T06:29:50.282Z,830.00
2023-05-05T06:30:50.351Z,814.00
2023-05-05T06:31:50.501Z,806.00
2023-05-05T06:32:50.488Z,862.00
2023-05-05T06:33:50.560Z,874.00
2023-05-05T06:34:50.611Z,874.00
2023-05-05T06:35:50.682Z,861.00
2023-05-05T06:36:50.774Z,854.00
2023-05-05T06:37:50.789Z,795.00
2023-05-05T06:38:51.337Z,774.00
2023-05-05T06:39:50.890Z,770.00
2023-05-05T06:40:50.986Z,768.00
2023-05-05T06:41:51.050Z,786.00
2023-05-05T06:42:51.089Z,792.00
2023-05-05T06:43:51.166Z,805.00
2023-05-05T06:44:51.175Z,819.00
2023-05-05T06:45:51.283Z,831.00
2023-05-05T06:46:51.387Z,845.00
2023-05-05T06:47:51.397Z,851.00
2023-05-05T06:48:51.434Z,857.00
2023-05-05T06:49:51.490Z,864.00
2023-05-05T06:50:51.667Z,865.00
2023-05-05T06:51:51.579Z,855.00
2023-05-05T06:52:51.636Z,850.00
2023-05-05T06:53:51.690Z,853.00
2023-05-05T06:54:51.764Z,858.00
2023-05-05T06:55:51.808Z,852.00
2023-05-05T06:56:51.834Z,844.00
2023-05-05T06:57:51.894Z,849.00
2023-05-05T06:58:51.994Z,866.00
2023-05-05T06:59:51.995Z,891.00
2023-05-05T07:00:52.064Z,916.00
2023-05-05T07:01:52.040Z,939.00
2023-05-05T07:02:52.126Z,971.00
2023-05-05T07:03:52.378Z,985.00
2023-05-05T07:04:52.170Z,998.00
2023-05-05T07:05:52.205Z,1005.00
2023-05-05T07:06:52.302Z,1013.00
2023-05-05T07:07:52.252Z,1027.00
2023-05-05T07:08:52.271Z,1039.00
2023-05-05T07:09:52.304Z,1052.00
2023-05-05T07:10:52.315Z,1058.00
2023-05-05T07:11:52.308Z,1071.00
2023-05-05T07:12:52.406Z,1086.00
2023-05-05T07:13:52.389Z,1103.00
2023-05-05T07:14:52.379Z,1120.00
2023-05-05T07:15:52.372Z,1137.00
2023-05-05T07:16:52.433Z,1148.00
2023-05-05T07:17:52.463Z,1156.00
2023-05-05T07:18:52.504Z,1165.00
2023-05-05T07:19:52.465Z,1177.00
2023-05-05T07:20:52.437Z,1188.00
2023-05-05T07:21:52.409Z,1201.00
2023-05-05T07:22:52.493Z,1209.00
2023-05-05T07:23:52.495Z,1218.00
2023-05-05T07:24:52.415Z,1225.00
2023-05-05T07:25:52.457Z,1233.00
2023-05-05T07:26:52.471Z,1246.00
2023-05-05T07:27:52.441Z,1253.00
2023-05-05T07:28:52.450Z,1261.00
2023-05-05T07:29:52.418Z,1268.00
2023-05-05T07:30:52.436Z,1274.00
2023-05-05T07:31:52.455Z,1283.00
2023-05-05T07:32:52.465Z,1296.00
2023-05-05T07:33:52.447Z,1305.00
2023-05-05T07:34:52.461Z,1316.00
2023-05-05T07:35:52.418Z,1331.00
2023-05-05T07:36:52.449Z,1341.00
2023-05-05T07:37:52.442Z,1347.00
2023-05-05T07:38:52.529Z,1353.00
2023-05-05T07:39:52.530Z,1359.00
2023-05-05T07:40:52.488Z,1368.00
2023-05-05T07:41:52.488Z,1373.00
2023-05-05T07:42:52.522Z,1369.00
2023-05-05T07:43:52.526Z,1368.00
2023-05-05T07:44:52.555Z,1372.00
2023-05-05T07:45:52.584Z,1373.00
2023-05-05T07:46:52.571Z,1376.00
2023-05-05T07:47:52.818Z,1383.00
2023-05-05T07:48:52.693Z,1394.00
2023-05-05T07:49:52.709Z,1407.00
2023-05-05T07:50:53.038Z,1425.00
2023-05-05T07:51:52.779Z,1438.00
2023-05-05T07:52:59.284Z,1468.00
2023-05-05T07:53:53.799Z,1508.00
2023-05-05T07:54:52.868Z,1522.00
2023-05-05T07:55:52.773Z,1526.00
2023-05-05T07:56:52.790Z,1537.00
2023-05-05T07:57:52.752Z,1558.00
2023-05-05T07:58:52.867Z,1578.00
2023-05-05T07:59:52.780Z,1600.00
2023-05-05T08:00:52.786Z,1617.00
2023-05-05T08:01:54.838Z,1644.00
2023-05-05T08:02:52.993Z,1668.00
2023-05-05T08:03:53.064Z,1690.00
2023-05-05T08:04:53.058Z,1709.00
2023-05-05T08:05:53.018Z,1758.00
2023-05-05T08:06:53.055Z,1764.00
2023-05-05T08:07:53.128Z,1778.00
2023-05-05T08:08:53.156Z,1790.00
2023-05-05T08:09:53.252Z,1810.00
2023-05-05T08:10:53.496Z,1829.00
2023-05-05T08:11:53.326Z,1842.00
2023-05-05T08:12:53.397Z,1855.00
2023-05-05T08:13:53.436Z,1893.00
2023-05-05T08:14:53.501Z,1921.00
2023-05-05T08:15:53.564Z,1940.00
2023-05-05T08:16:53.567Z,1952.00
2023-05-05T08:17:53.689Z,1968.00
2023-05-05T08:18:53.656Z,1976.00
2023-05-05T08:19:53.712Z,1975.00
2023-05-05T08:20:53.760Z,1963.00
2023-05-05T08:21:53.802Z,1945.00
2023-05-05T08:22:53.843Z,1934.00
2023-05-05T08:23:53.934Z,1925.00
2023-05-05T08:24:53.937Z,1919.00
2023-05-05T08:25:53.992Z,1919.00
2023-05-05T08:26:54.154Z,1924.00
2023-05-05T08:27:54.083Z,1924.00
2023-05-05T08:28:54.135Z,1926.00
2023-05-05T08:29:54.171Z,1921.00
2023-05-05T08:30:54.229Z,1917.00
2023-05-05T08:31:54.416Z,1915.00
2023-05-05T08:32:54.356Z,1916.00
2023-05-05T08:33:54.358Z,1916.00
2023-05-05T08:34:54.357Z,1914.00
2023-05-05T08:35:54.403Z,1908.00
2023-05-05T08:36:54.462Z,1902.00
2023-05-05T08:37:56.053Z,1897.00
2023-05-05T08:38:54.894Z,1892.00
2023-05-05T08:39:54.467Z,1889.00
2023-05-05T08:40:54.458Z,1885.00
2023-05-05T08:41:54.427Z,1881.00
2023-05-05T08:42:54.566Z,1883.00
2023-05-05T08:43:54.437Z,1887.00
2023-05-05T08:44:54.467Z,1893.00
2023-05-05T08:45:54.442Z,1901.00
2023-05-05T08:46:54.470Z,1905.00
2023-05-05T08:47:54.436Z,1912.00
2023-05-05T08:48:54.415Z,1923.00
2023-05-05T08:49:54.388Z,1940.00
2023-05-05T08:50:54.396Z,1963.00
2023-05-05T08:51:54.416Z,1980.00
2023-05-05T08:52:54.417Z,2001.00
2023-05-05T08:53:54.376Z,2020.00
2023-05-05T08:54:54.412Z,2051.00
2023-05-05T08:55:54.346Z,2069.00
2023-05-05T08:56:54.371Z,2092.00
2023-05-05T08:57:54.346Z,2154.00
2023-05-05T08:58:54.409Z,2179.00
2023-05-05T08:59:54.327Z,2189.00
2023-05-05T09:00:54.342Z,2209.00
2023-05-05T09:01:54.487Z,2222.00
2023-05-05T09:02:54.436Z,2233.00
2023-05-05T09:03:54.280Z,2254.00
2023-05-05T09:04:54.348Z,2283.00
2023-05-05T09:05:54.328Z,2309.00
2023-05-05T09:06:54.281Z,2323.00
2023-05-05T09:07:54.271Z,2325.00
2023-05-05T09:08:54.275Z,2327.00
2023-05-05T09:09:54.249Z,2327.00
2023-05-05T09:10:54.249Z,2344.00
2023-05-05T09:11:54.230Z,2385.00
2023-05-05T09:12:54.271Z,2409.00
2023-05-05T09:13:54.218Z,2424.00
2023-05-05T09:14:54.445Z,2433.00
2023-05-05T09:15:54.214Z,2467.00
2023-05-05T09:16:54.277Z,2478.00
2023-05-05T09:17:54.255Z,2496.00
2023-05-05T09:18:54.211Z,2508.00
2023-05-05T09:19:54.218Z,2520.00
2023-05-05T09:20:54.200Z,2541.00
2023-05-05T09:21:54.201Z,2559.00
2023-05-05T09:22:54.170Z,2578.00
2023-05-05T09:23:54.166Z,2597.00
2023-05-05T09:24:54.161Z,2635.00
2023-05-05T09:25:54.163Z,2670.00
2023-05-05T09:26:54.146Z,2690.00
2023-05-05T09:27:54.154Z,2702.00
2023-05-05T09:28:54.161Z,2713.00
2023-05-05T09:29:54.357Z,2723.00
2023-05-05T09:30:54.254Z,2741.00
2023-05-05T09:31:54.092Z,2776.00
2023-05-05T09:32:54.191Z,2800.00
2023-05-05T09:33:54.138Z,2815.00
2023-05-05T09:34:54.389Z,2827.00
2023-05-05T09:35:54.088Z,2847.00
2023-05-05T09:36:54.105Z,2875.00
2023-05-05T09:37:54.073Z,2896.00
2023-05-05T09:38:54.075Z,2918.00
2023-05-05T09:39:54.078Z,2930.00
2023-05-05T09:40:54.067Z,2945.00
2023-05-05T09:41:54.047Z,2955.00
2023-05-05T09:42:54.060Z,2958.00
2023-05-05T09:43:54.053Z,2964.00
2023-05-05T09:44:54.035Z,2974.00
2023-05-05T09:45:54.077Z,3026.00
2023-05-05T09:46:54.129Z,3041.00
2023-05-05T09:47:59.193Z,3050.00
2023-05-05T09:48:55.003Z,3054.00
2023-05-05T09:49:53.983Z,3059.00
2023-05-05T09:50:53.991Z,3062.00
2023-05-05T09:51:53.982Z,3071.00
2023-05-05T09:52:53.976Z,3080.00
2023-05-05T09:53:53.973Z,3088.00
2023-05-05T09:54:53.967Z,3101.00
2023-05-05T09:55:54.028Z,3122.00
2023-05-05T09:56:53.971Z,3144.00
2023-05-05T09:57:53.957Z,3155.00
2023-05-05T09:58:53.965Z,3163.00
2023-05-05T09:59:54.002Z,3172.00
2023-05-05T10:00:53.934Z,3174.00
2023-05-05T10:01:53.976Z,3157.00
2023-05-05T10:02:54.121Z,3102.00
2023-05-05T10:03:53.882Z,3116.00
2023-05-05T10:04:53.908Z,3140.00
2023-05-05T10:05:53.924Z,3156.00
2023-05-05T10:06:53.909Z,3169.00
2023-05-05T10:07:53.869Z,3177.00
2023-05-05T10:08:53.873Z,3190.00
2023-05-05T10:09:53.858Z,3208.00
2023-05-05T10:10:53.890Z,3221.00
2023-05-05T10:11:53.878Z,3237.00
2023-05-05T10:12:53.856Z,3250.00
2023-05-05T10:13:53.813Z,3257.00
2023-05-05T10:14:53.831Z,3259.00
2023-05-05T10:15:53.927Z,3257.00
2023-05-05T10:16:53.836Z,3252.00
2023-05-05T10:18:05.980Z,3253.00
2023-05-05T10:18:54.875Z,3255.00
2023-05-05T10:19:53.890Z,3268.00
2023-05-05T10:20:53.776Z,3288.00
2023-05-05T10:21:53.771Z,3297.00
2023-05-05T10:22:53.786Z,3304.00
2023-05-05T10:23:53.832Z,3310.00
2023-05-05T10:24:53.752Z,3319.00
2023-05-05T10:25:53.753Z,3334.00
2023-05-05T10:26:53.712Z,3348.00
2023-05-05T10:27:53.702Z,3362.00
2023-05-05T10:28:53.728Z,3388.00
2023-05-05T10:29:53.902Z,3460.00
2023-05-05T10:30:53.721Z,3463.00
2023-05-05T10:31:53.709Z,3463.00
2023-05-05T10:33:04.145Z,3465.00
2023-05-05T10:33:54.788Z,3465.00
2023-05-05T10:34:54.039Z,3465.00
2023-05-05T10:35:53.674Z,3470.00
2023-05-05T10:36:53.685Z,3473.00
2023-05-05T10:37:53.696Z,3482.00
2023-05-05T10:38:53.671Z,3492.00
2023-05-05T10:39:53.895Z,3510.00
2023-05-05T10:40:53.608Z,3527.00
2023-05-05T10:41:53.654Z,3533.00
2023-05-05T10:42:53.628Z,3541.00
2023-05-05T10:43:53.628Z,3531.00
2023-05-05T10:44:53.902Z,3523.00
2023-05-05T10:45:53.682Z,3527.00
2023-05-05T10:46:53.583Z,3523.00
2023-05-05T10:47:53.742Z,3521.00
2023-05-05T10:48:53.610Z,3521.00
2023-05-05T10:49:53.915Z,3514.00
2023-05-05T10:50:53.581Z,3490.00
2023-05-05T10:51:53.581Z,3437.00
2023-05-05T10:52:53.541Z,3385.00
2023-05-05T10:53:53.637Z,3384.00
2023-05-05T10:54:53.529Z,3391.00
2023-05-05T10:55:53.551Z,3399.00
2023-05-05T10:56:53.519Z,3408.00
2023-05-05T10:57:53.534Z,3420.00
2023-05-05T10:59:00.239Z,3432.00
2023-05-05T10:59:54.506Z,3440.00
2023-05-05T11:00:53.533Z,3449.00
2023-05-05T11:01:53.486Z,3459.00
2023-05-05T11:02:53.480Z,3473.00
2023-05-05T11:03:53.543Z,3466.00
2023-05-05T11:04:53.974Z,3462.00
2023-05-05T11:05:53.474Z,3463.00
2023-05-05T11:06:53.465Z,3465.00
2023-05-05T11:07:53.445Z,3467.00
2023-05-05T11:08:53.461Z,3473.00
2023-05-05T11:09:53.425Z,3477.00
2023-05-05T11:10:53.422Z,3486.00
2023-05-05T11:11:53.412Z,3497.00
2023-05-05T11:12:53.482Z,3500.00
2023-05-05T11:13:53.412Z,3504.00
2023-05-05T11:14:53.405Z,3509.00
2023-05-05T11:15:53.430Z,3526.00
2023-05-05T11:16:53.440Z,3543.00
2023-05-05T11:17:53.465Z,3551.00
2023-05-05T11:18:53.360Z,3553.00
2023-05-05T11:19:53.396Z,3555.00
2023-05-05T11:20:53.337Z,3557.00
2023-05-05T11:21:53.339Z,3556.00
2023-05-05T11:22:53.447Z,3550.00
2023-05-05T11:23:53.308Z,3547.00
2023-05-05T11:24:53.393Z,3543.00
2023-05-05T11:25:53.315Z,3544.00
2023-05-05T11:26:53.310Z,3547.00
2023-05-05T11:27:53.322Z,3549.00
2023-05-05T11:28:53.296Z,3551.00
2023-05-05T11:29:53.405Z,3547.00
2023-05-05T11:30:53.296Z,3532.00
2023-05-05T11:31:53.318Z,3525.00
2023-05-05T11:32:53.340Z,3525.00
2023-05-05T11:33:53.326Z,3522.00
2023-05-05T11:34:53.282Z,3516.00
2023-05-05T11:35:53.276Z,3385.00
2023-05-05T11:36:53.274Z,3338.00
2023-05-05T11:37:53.270Z,3308.00
2023-05-05T11:38:53.234Z,3290.00
2023-05-05T11:39:53.227Z,3266.00
2023-05-05T11:40:53.279Z,3214.00
2023-05-05T11:41:53.221Z,3051.00
2023-05-05T11:42:53.246Z,3027.00
2023-05-05T11:43:53.240Z,2999.00
2023-05-05T11:44:53.260Z,2975.00
2023-05-05T11:45:53.313Z,2960.00
2023-05-05T11:46:53.301Z,2943.00
2023-05-05T11:47:53.346Z,2913.00
2023-05-05T11:48:53.315Z,2890.00
2023-05-05T11:49:53.362Z,2875.00
2023-05-05T11:50:53.417Z,2871.00
2023-05-05T11:51:53.413Z,2869.00
2023-05-05T11:52:53.604Z,2864.00
2023-05-05T11:53:53.518Z,2863.00
2023-05-05T11:54:54.020Z,2860.00
2023-05-05T11:55:53.592Z,2859.00
2023-05-05T11:56:53.609Z,2858.00
2023-05-05T11:57:53.737Z,2855.00
2023-05-05T11:58:53.644Z,2851.00
2023-05-05T11:59:53.973Z,2849.00
2023-05-05T12:00:53.736Z,2848.00
2023-05-05T12:01:53.780Z,2842.00
2023-05-05T12:02:53.847Z,2834.00
2023-05-05T12:03:53.975Z,2828.00
2023-05-05T12:04:54.009Z,2830.00
2023-05-05T12:05:53.918Z,2829.00
2023-05-05T12:06:53.964Z,2833.00
2023-05-05T12:07:54.022Z,2827.00
2023-05-05T12:08:54.908Z,2825.00
2023-05-05T12:09:54.084Z,2818.00
2023-05-05T12:10:54.235Z,2816.00
2023-05-05T12:11:54.175Z,2809.00
2023-05-05T12:12:55.528Z,2811.00
2023-05-05T12:13:54.284Z,2809.00
2023-05-05T12:14:54.428Z,2810.00
2023-05-05T12:15:54.424Z,2809.00
2023-05-05T12:16:54.413Z,2808.00